Flight Track Log - Related Links

Times and Time Zones

All times are in EDT time to prevent confusion due to time zone crossing. See the SLI534 flight status page for this flight to view local times or setup timezone preferences in your user account.

Time Position Orientation Groundspeed Altitude Reporting Facility
EDT Latitude Longitude Course Direction KTS MPH feet Rate Location/Type
Wed 05:21:00 PM 20.9001 -89.9371 262° West  Level Estimated
Wed 05:22:00 PM 20.8877 -90.0303 262° West  Level Estimated
Wed 05:23:00 PM 20.8753 -90.1234 262° West  Level Estimated
Wed 05:24:00 PM 20.8628 -90.2165 262° West  Level Estimated
Wed 05:25:00 PM 20.8503 -90.3095 262° West  Level Estimated
Wed 05:26:00 PM 20.8377 -90.4026 262° West  Level Estimated
Wed 05:27:00 PM 20.8250 -90.4957 262° West  Level Estimated
Wed 05:28:00 PM 20.8123 -90.5887 262° West  Level Estimated
Wed 05:29:00 PM 20.7996 -90.6817 262° West  Level Estimated
Wed 05:30:00 PM 20.7868 -90.7747 262° West  Level Estimated
Wed 05:31:00 PM 20.7740 -90.8677 262° West  Level Estimated
Wed 05:32:00 PM 20.7611 -90.9607 262° West  Level Estimated
Wed 05:33:00 PM 20.7481 -91.0536 262° West  Level Estimated
Wed 05:34:00 PM 20.7351 -91.1466 262° West  Level Estimated
Wed 05:35:00 PM 20.7221 -91.2395 261° West  Level Estimated
Wed 05:36:00 PM 20.7090 -91.3324 261° West  Level Estimated
Wed 05:37:00 PM 20.6959 -91.4253 261° West  Level Estimated
Wed 05:38:00 PM 20.6827 -91.5182 261° West  Level Estimated
Wed 05:39:00 PM 20.6694 -91.6110 261° West  Level Estimated
Wed 05:40:00 PM 20.6562 -91.7038 261° West  Level Estimated
Wed 05:41:00 PM 20.6428 -91.7967 261° West  Level Estimated
Wed 05:42:00 PM 20.6294 -91.8895 261° West  Level Estimated
Wed 05:43:00 PM 20.6160 -91.9823 261° West  Level Estimated
Wed 05:44:00 PM 20.6025 -92.0751 261° West  Level Estimated
Wed 05:45:00 PM 20.5889 -92.1678 261° West  Level Estimated
Wed 05:46:00 PM 20.5754 -92.2606 261° West  Level Estimated
Wed 05:47:00 PM 20.5617 -92.3533 261° West  Level Estimated
Wed 05:48:00 PM 20.5480 -92.4460 261° West  Level Estimated
Wed 05:49:00 PM 20.5343 -92.5387 261° West  Level Estimated
Wed 05:50:00 PM 20.5205 -92.6314 261° West  Level Estimated
Wed 05:51:00 PM 20.5067 -92.7240 261° West  Level Estimated
Wed 05:52:00 PM 20.4928 -92.8167 261° West  Level Estimated
Wed 05:53:00 PM 20.4788 -92.9093 261° West  Level Estimated
Wed 05:54:00 PM 20.4649 -93.0019 261° West  Level Estimated
Wed 05:55:00 PM 20.4508 -93.0945 261° West  Level Estimated
Wed 05:56:00 PM 20.4368 -93.1871 261° West  Level Estimated
Wed 05:57:00 PM 20.4226 -93.2796 261° West  Level Estimated
Wed 05:58:00 PM 20.4084 -93.3722 261° West  Level Estimated
Wed 05:59:00 PM 20.3942 -93.4647 261° West  Level Estimated
Wed 06:00:00 PM 20.3799 -93.5572 261° West  Level Estimated
Wed 06:01:00 PM 20.3656 -93.6497 261° West  Level Estimated
Wed 06:02:00 PM 20.3512 -93.7422 261° West  Level Estimated
Wed 06:03:00 PM 20.3368 -93.8346 261° West  Level Estimated
Wed 06:04:00 PM 20.3223 -93.9271 261° West  Level Estimated
Wed 06:05:00 PM 20.3078 -94.0195 261° West  Level Estimated
Wed 06:06:00 PM 20.2932 -94.1119 260° West  Level Estimated
Wed 06:07:00 PM 20.2786 -94.2043 260° West  Level Estimated
Wed 06:08:00 PM 20.2640 -94.2966 260° West  Level Estimated
Wed 06:09:00 PM 20.2492 -94.3890 260° West  Level Estimated
Wed 06:10:00 PM 20.2345 -94.4813 260° West  Level Estimated
Wed 06:11:00 PM 20.2197 -94.5736 260° West  Level Estimated
Wed 06:12:00 PM 20.2048 -94.6659 260° West  Level Estimated
Wed 06:13:00 PM 20.1899 -94.7582 260° West  Level Estimated
Wed 06:14:00 PM 20.1749 -94.8505 260° West  Level Estimated
Wed 06:15:00 PM 20.1599 -94.9427 260° West  Level Estimated
Wed 06:16:00 PM 20.1449 -95.0350 260° West  Level Estimated
Wed 06:17:00 PM 20.1298 -95.1272 260° West  Level Estimated
Wed 06:18:00 PM 20.1146 -95.2194 260° West  Level Estimated
Wed 06:19:00 PM 20.0994 -95.3115 260° West  Level Estimated
Wed 06:20:00 PM 20.0842 -95.4037 260° West  Level Estimated
Wed 06:21:00 PM 20.0689 -95.4958 260° West  Level Estimated
Wed 06:22:00 PM 20.0536 -95.5880 260° West  Level Estimated
Wed 06:23:00 PM 20.0382 -95.6801 260° West  Level Estimated
Wed 06:24:00 PM 20.0228 -95.7721 260° West  Level Estimated
Wed 06:25:00 PM 20.0073 -95.8642 260° West  Level Estimated
Wed 06:26:00 PM 19.9917 -95.9563 260° West  Level Estimated
Wed 06:27:00 PM 19.9762 -96.0483 260° West  Level Estimated
Wed 06:28:00 PM 19.9605 -96.1403 260° West  Level Estimated
Wed 06:29:00 PM 19.9449 -96.2323 260° West  Level Estimated
Wed 06:30:00 PM 19.9291 -96.3242 260° West  Level Estimated
Wed 06:31:00 PM 19.9134 -96.4162 260° West  Level Estimated
Wed 06:32:00 PM 19.8976 -96.5081 260° West  Level Estimated
Wed 06:33:00 PM 19.8817 -96.6001 260° West  Level Estimated
Wed 06:34:00 PM 19.8658 -96.6920 260° West  Level Estimated
Wed 06:35:00 PM 19.8498 -96.7839 260° West  Level Estimated
Wed 06:36:00 PM 19.8338 -96.8757 260° West  Level Estimated
Wed 06:37:00 PM 19.8178 -96.9676 259° West  Level Estimated
Wed 06:38:00 PM 19.8017 -97.0594 259° West  Level Estimated
Wed 06:39:00 PM 19.7855 -97.1512 259° West  Level Estimated
Wed 06:40:00 PM 19.7694 -97.2430 259° West  Level Estimated
Wed 06:41:00 PM 19.7531 -97.3348 259° West  Level Estimated
Wed 06:42:00 PM 19.7368 -97.4265 259° West  Level Estimated
Wed 06:43:00 PM 19.7205 -97.5182 259° West  Level Estimated
Wed 06:44:00 PM 19.7041 -97.6100 259° West  Level Estimated
Wed 06:45:00 PM 19.6877 -97.7017 259° West  Level Estimated
Wed 06:46:00 PM 19.6712 -97.7933 259° West  Level Estimated
Wed 06:47:00 PM 19.6547 -97.8850 259° West  Level Estimated
Wed 06:48:00 PM 19.6382 -97.9766 259° West  Level Estimated
Wed 06:49:00 PM 19.6215 -98.0683 259° West  Level Estimated
Wed 06:50:00 PM 19.6049 -98.1599 259° West  Level Estimated
Wed 06:51:00 PM 19.5882 -98.2514 259° West  Level Estimated
Wed 06:52:00 PM 19.5714 -98.3430 259° West  Level Estimated
Wed 06:53:00 PM 19.5546 -98.4345 259° West  Level Estimated
Wed 06:54:00 PM 19.5378 -98.5261 259° West  Level Estimated
Wed 06:55:00 PM 19.5209 -98.6176 259° West  Level Estimated
Wed 06:56:00 PM 19.5040 -98.7091 259° West  Level Estimated
Wed 06:57:00 PM 19.4870 -98.8005 259° West  Level Estimated
Wed 06:58:00 PM 19.4700 -98.8920 259° West  Level Estimated
Wed 06:59:00 PM 19.4529 -98.9834 259° West  Level Estimated
Wed 07:00:00 PM 19.4363 -99.0721 259° West  Level Estimated
Wed 07:01:00 PM 19.4363 -99.0721 43° Northeast  Level Estimated
Wed 07:02:00 PM 19.4363 -99.0721 43° Northeast  Level Estimated
Wed 07:03:00 PM 19.4363 -99.0721 43° Northeast  Level Estimated
Wed 07:04:00 PM 19.4363 -99.0721 43° Northeast  Level Estimated
Wed 07:05:00 PM 19.4363 -99.0721 43° Northeast  Level Estimated
Wed 07:06:00 PM 19.4363 -99.0721 43° Northeast  Level Estimated
Wed 07:07:00 PM 19.4363 -99.0721 43° Northeast  Level Estimated
Wed 07:08:00 PM 19.4363 -99.0721 43° Northeast  Level Estimated
Wed 07:09:00 PM 19.4363 -99.0721 43° Northeast  Level Estimated

Login

Don't have an account? Register now (free) for customized features, flight alerts, and more!